createdAt,value
2022-12-28T00:00:35.053Z,1015.41
2022-12-28T00:01:34.971Z,1015.38
2022-12-28T00:02:34.937Z,1015.40
2022-12-28T00:03:34.930Z,1015.41
2022-12-28T00:04:34.939Z,1015.45
2022-12-28T00:05:34.949Z,1015.46
2022-12-28T00:06:34.957Z,1015.43
2022-12-28T00:07:34.969Z,1015.36
2022-12-28T00:08:34.977Z,1015.37
2022-12-28T00:09:34.987Z,1015.34
2022-12-28T00:11:08.151Z,1015.37
2022-12-28T00:11:35.008Z,1015.40
2022-12-28T00:12:35.019Z,1015.33
2022-12-28T00:13:35.027Z,1015.40
2022-12-28T00:14:35.044Z,1015.33
2022-12-28T00:15:35.046Z,1015.31
2022-12-28T00:16:35.089Z,1015.28
2022-12-28T00:17:35.064Z,1015.27
2022-12-28T00:18:35.085Z,1015.23
2022-12-28T00:19:35.084Z,1015.19
2022-12-28T00:20:35.093Z,1015.23
2022-12-28T00:21:35.104Z,1015.20
2022-12-28T00:22:35.115Z,1015.20
2022-12-28T00:23:35.122Z,1015.23
2022-12-28T00:24:35.132Z,1015.14
2022-12-28T00:25:35.146Z,1015.19
2022-12-28T00:26:35.160Z,1015.12
2022-12-28T00:27:35.161Z,1015.11
2022-12-28T00:28:35.172Z,1015.14
2022-12-28T00:29:35.180Z,1015.12
2022-12-28T00:30:35.203Z,1015.12
2022-12-28T00:31:35.274Z,1015.08
2022-12-28T00:32:35.212Z,1015.09
2022-12-28T00:33:35.221Z,1015.07
2022-12-28T00:34:35.237Z,1015.10
2022-12-28T00:35:35.239Z,1015.10
2022-12-28T00:37:09.012Z,1015.16
2022-12-28T00:37:35.264Z,1015.24
2022-12-28T00:38:35.269Z,1015.27
2022-12-28T00:39:35.279Z,1015.28
2022-12-28T00:40:35.290Z,1015.23
2022-12-28T00:41:35.297Z,1015.25
2022-12-28T00:42:35.310Z,1015.21
2022-12-28T00:43:35.319Z,1015.21
2022-12-28T00:44:35.329Z,1015.12
2022-12-28T00:45:35.376Z,1015.11
2022-12-28T00:46:35.356Z,1015.03
2022-12-28T00:47:35.357Z,1015.04
2022-12-28T00:48:35.376Z,1014.99
2022-12-28T00:49:35.387Z,1014.99
2022-12-28T00:50:35.390Z,1015.01
2022-12-28T00:51:35.416Z,1014.99
2022-12-28T00:52:35.406Z,1015.03
2022-12-28T00:53:35.424Z,1014.98
2022-12-28T00:54:35.429Z,1015.02
2022-12-28T00:55:35.433Z,1015.01
2022-12-28T00:56:35.466Z,1015.06
2022-12-28T00:57:35.465Z,1015.05
2022-12-28T00:58:35.479Z,1015.07
2022-12-28T00:59:35.480Z,1015.04
2022-12-28T01:00:35.527Z,1015.06
2022-12-28T01:01:35.589Z,1015.09
2022-12-28T01:02:35.559Z,1015.06
2022-12-28T01:03:35.546Z,1015.02
2022-12-28T01:04:35.526Z,1015.04
2022-12-28T01:05:35.544Z,1014.96
2022-12-28T01:06:35.545Z,1015.01
2022-12-28T01:07:35.554Z,1014.95
2022-12-28T01:08:35.563Z,1014.93
2022-12-28T01:09:35.574Z,1014.88
2022-12-28T01:10:35.588Z,1014.92
2022-12-28T01:11:35.596Z,1014.95
2022-12-28T01:12:38.265Z,1014.99
2022-12-28T01:13:35.619Z,1014.99
2022-12-28T01:14:35.623Z,1014.93
2022-12-28T01:15:35.634Z,1014.92
2022-12-28T01:16:35.783Z,1014.88
2022-12-28T01:17:35.654Z,1014.89
2022-12-28T01:18:35.668Z,1014.87
2022-12-28T01:19:35.674Z,1014.88
2022-12-28T01:20:35.684Z,1014.89
2022-12-28T01:21:35.692Z,1014.89
2022-12-28T01:22:35.704Z,1014.87
2022-12-28T01:23:35.712Z,1014.89
2022-12-28T01:24:35.725Z,1014.84
2022-12-28T01:25:35.734Z,1014.81
2022-12-28T01:26:35.745Z,1014.72
2022-12-28T01:27:35.754Z,1014.73
2022-12-28T01:28:35.764Z,1014.75
2022-12-28T01:29:35.775Z,1014.73
2022-12-28T01:30:38.860Z,1014.74
2022-12-28T01:31:35.820Z,1014.68
2022-12-28T01:32:35.807Z,1014.68
2022-12-28T01:33:35.817Z,1014.69
2022-12-28T01:34:35.824Z,1014.68
2022-12-28T01:35:35.837Z,1014.68
2022-12-28T01:36:35.848Z,1014.62
2022-12-28T01:37:35.853Z,1014.60
2022-12-28T01:38:35.865Z,1014.59
2022-12-28T01:39:35.882Z,1014.60
2022-12-28T01:40:35.883Z,1014.57
2022-12-28T01:41:35.889Z,1014.57
2022-12-28T01:42:35.904Z,1014.54
2022-12-28T01:43:35.916Z,1014.53
2022-12-28T01:44:35.927Z,1014.53
2022-12-28T01:45:35.961Z,1014.45
2022-12-28T01:46:35.943Z,1014.46
2022-12-28T01:47:35.952Z,1014.46
2022-12-28T01:48:35.963Z,1014.47
2022-12-28T01:49:35.975Z,1014.46
2022-12-28T01:50:35.991Z,1014.40
2022-12-28T01:51:36.003Z,1014.41
2022-12-28T01:52:36.010Z,1014.32
2022-12-28T01:53:36.016Z,1014.32
2022-12-28T01:54:36.027Z,1014.30
2022-12-28T01:55:36.032Z,1014.28
2022-12-28T01:56:36.057Z,1014.20
2022-12-28T01:57:36.074Z,1014.21
2022-12-28T01:58:36.080Z,1014.19
2022-12-28T01:59:36.075Z,1014.17
2022-12-28T02:00:36.087Z,1014.15
2022-12-28T02:01:36.202Z,1014.12
2022-12-28T02:02:36.361Z,1014.08
2022-12-28T02:03:36.109Z,1014.08
2022-12-28T02:04:36.118Z,1014.12
2022-12-28T02:05:36.127Z,1014.09
2022-12-28T02:06:36.140Z,1014.11
2022-12-28T02:07:36.151Z,1014.04
2022-12-28T02:08:36.157Z,1014.03
2022-12-28T02:09:36.176Z,1013.96
2022-12-28T02:10:42.837Z,1013.92
2022-12-28T02:11:36.185Z,1013.91
2022-12-28T02:12:36.252Z,1013.89
2022-12-28T02:13:36.206Z,1013.83
2022-12-28T02:14:36.221Z,1013.82
2022-12-28T02:15:36.223Z,1013.81
2022-12-28T02:16:36.298Z,1013.80
2022-12-28T02:17:36.243Z,1013.76
2022-12-28T02:18:36.254Z,1013.73
2022-12-28T02:19:36.263Z,1013.67
2022-12-28T02:20:36.274Z,1013.69
2022-12-28T02:21:36.286Z,1013.65
2022-12-28T02:22:36.313Z,1013.62
2022-12-28T02:23:36.300Z,1013.64
2022-12-28T02:24:36.309Z,1013.65
2022-12-28T02:25:36.325Z,1013.62
2022-12-28T02:26:36.328Z,1013.58
2022-12-28T02:27:36.335Z,1013.55
2022-12-28T02:28:36.345Z,1013.53
2022-12-28T02:29:36.357Z,1013.48
2022-12-28T02:30:36.370Z,1013.47
2022-12-28T02:31:36.390Z,1013.45
2022-12-28T02:32:36.382Z,1013.44
2022-12-28T02:33:36.396Z,1013.42
2022-12-28T02:34:36.411Z,1013.41
2022-12-28T02:35:36.414Z,1013.38
2022-12-28T02:36:36.423Z,1013.37
2022-12-28T02:37:36.441Z,1013.33
2022-12-28T02:38:36.449Z,1013.32
2022-12-28T02:39:36.447Z,1013.29
2022-12-28T02:40:36.462Z,1013.32
2022-12-28T02:41:36.467Z,1013.28
2022-12-28T02:42:36.475Z,1013.25
2022-12-28T02:43:36.489Z,1013.21
2022-12-28T02:44:36.544Z,1013.28
2022-12-28T02:45:36.509Z,1013.17
2022-12-28T02:46:36.522Z,1013.16
2022-12-28T02:47:36.523Z,1013.21
2022-12-28T02:48:36.537Z,1013.17
2022-12-28T02:49:36.543Z,1013.07
2022-12-28T02:50:36.549Z,1013.12
2022-12-28T02:51:36.561Z,1013.07
2022-12-28T02:52:36.567Z,1013.05
2022-12-28T02:53:36.579Z,1013.07
2022-12-28T02:54:36.587Z,1013.09
2022-12-28T02:55:36.597Z,1013.06
2022-12-28T02:56:36.605Z,1013.01
2022-12-28T02:57:36.613Z,1013.01
2022-12-28T02:58:36.625Z,1013.00
2022-12-28T02:59:36.633Z,1012.99
2022-12-28T03:00:36.642Z,1012.92
2022-12-28T03:01:36.746Z,1012.94
2022-12-28T03:02:36.785Z,1012.91
2022-12-28T03:03:36.685Z,1012.83
2022-12-28T03:04:36.678Z,1012.81
2022-12-28T03:05:36.691Z,1012.77
2022-12-28T03:06:36.699Z,1012.83
2022-12-28T03:07:36.719Z,1012.74
2022-12-28T03:08:36.724Z,1012.77
2022-12-28T03:09:36.728Z,1012.69
2022-12-28T03:10:36.735Z,1012.63
2022-12-28T03:11:36.745Z,1012.63
2022-12-28T03:12:36.764Z,1012.57
2022-12-28T03:13:36.771Z,1012.57
2022-12-28T03:14:36.777Z,1012.55
2022-12-28T03:15:36.830Z,1012.57
2022-12-28T03:16:36.801Z,1012.50
2022-12-28T03:17:36.804Z,1012.48
2022-12-28T03:18:36.808Z,1012.41
2022-12-28T03:19:36.824Z,1012.46
2022-12-28T03:20:36.838Z,1012.45
2022-12-28T03:21:36.839Z,1012.45
2022-12-28T03:22:36.846Z,1012.46
2022-12-28T03:23:36.861Z,1012.46
2022-12-28T03:24:36.866Z,1012.41
2022-12-28T03:25:36.876Z,1012.44
2022-12-28T03:26:36.886Z,1012.44
2022-12-28T03:27:36.892Z,1012.43
2022-12-28T03:28:36.900Z,1012.40
2022-12-28T03:29:36.907Z,1012.43
2022-12-28T03:30:36.931Z,1012.36
2022-12-28T03:31:36.940Z,1012.37
2022-12-28T03:32:36.937Z,1012.34
2022-12-28T03:33:36.946Z,1012.35
2022-12-28T03:34:36.956Z,1012.30
2022-12-28T03:35:36.967Z,1012.31
2022-12-28T03:36:36.977Z,1012.28
2022-12-28T03:37:36.986Z,1012.22
2022-12-28T03:38:37.005Z,1012.18
2022-12-28T03:39:37.002Z,1012.15
2022-12-28T03:40:37.014Z,1012.15
2022-12-28T03:41:37.022Z,1012.18
2022-12-28T03:42:37.034Z,1012.13
2022-12-28T03:43:37.042Z,1012.14
2022-12-28T03:44:37.050Z,1012.01
2022-12-28T03:45:44.943Z,1012.02
2022-12-28T03:46:37.101Z,1011.99
2022-12-28T03:47:37.078Z,1011.95
2022-12-28T03:48:37.087Z,1011.92
2022-12-28T03:49:37.097Z,1011.87
2022-12-28T03:50:37.110Z,1011.83
2022-12-28T03:51:37.113Z,1011.83
2022-12-28T03:52:37.124Z,1011.81
2022-12-28T03:53:37.138Z,1011.86
2022-12-28T03:54:37.145Z,1011.83
2022-12-28T03:55:37.151Z,1011.83
2022-12-28T03:56:37.160Z,1011.79
2022-12-28T03:57:37.172Z,1011.77
2022-12-28T03:58:37.180Z,1011.76
2022-12-28T03:59:37.187Z,1011.83
2022-12-28T04:00:37.201Z,1011.78
2022-12-28T04:01:37.309Z,1011.80
2022-12-28T04:02:37.355Z,1011.82
2022-12-28T04:03:37.239Z,1011.74
2022-12-28T04:04:37.239Z,1011.78
2022-12-28T04:05:37.243Z,1011.71
2022-12-28T04:06:37.255Z,1011.70
2022-12-28T04:07:37.267Z,1011.69
2022-12-28T04:08:37.270Z,1011.63
2022-12-28T04:09:37.280Z,1011.68
2022-12-28T04:10:37.290Z,1011.70
2022-12-28T04:11:37.297Z,1011.65
2022-12-28T04:12:37.307Z,1011.62
2022-12-28T04:13:37.317Z,1011.62
2022-12-28T04:14:37.325Z,1011.57
2022-12-28T04:15:37.379Z,1011.52
2022-12-28T04:16:37.343Z,1011.53
2022-12-28T04:17:37.353Z,1011.52
2022-12-28T04:18:37.364Z,1011.51
2022-12-28T04:19:37.370Z,1011.53
2022-12-28T04:20:37.378Z,1011.51
2022-12-28T04:21:37.401Z,1011.46
2022-12-28T04:22:37.399Z,1011.42
2022-12-28T04:23:37.414Z,1011.36
2022-12-28T04:24:37.415Z,1011.42
2022-12-28T04:25:37.425Z,1011.35
2022-12-28T04:26:37.436Z,1011.33
2022-12-28T04:27:37.476Z,1011.34
2022-12-28T04:28:37.453Z,1011.32
2022-12-28T04:29:37.461Z,1011.29
2022-12-28T04:30:37.471Z,1011.22
2022-12-28T04:31:37.517Z,1011.22
2022-12-28T04:32:37.504Z,1011.20
2022-12-28T04:33:37.503Z,1011.19
2022-12-28T04:34:38.462Z,1011.22
2022-12-28T04:35:37.514Z,1011.19
2022-12-28T04:36:37.524Z,1011.12
2022-12-28T04:37:37.532Z,1011.04
2022-12-28T04:38:37.545Z,1011.11
2022-12-28T04:39:55.852Z,1011.12
2022-12-28T04:40:37.561Z,1011.08
2022-12-28T04:41:37.576Z,1011.07
2022-12-28T04:42:37.586Z,1011.07
2022-12-28T04:43:37.587Z,1011.09
2022-12-28T04:44:37.596Z,1011.14
2022-12-28T04:45:37.606Z,1011.06
2022-12-28T04:46:37.692Z,1011.05
2022-12-28T04:47:37.622Z,1011.07
2022-12-28T04:48:37.633Z,1011.00
2022-12-28T04:49:37.644Z,1011.02
2022-12-28T04:50:37.657Z,1011.03
2022-12-28T04:51:37.663Z,1011.03
2022-12-28T04:52:37.666Z,1011.05
2022-12-28T04:53:37.689Z,1011.09
2022-12-28T04:54:37.691Z,1011.04
2022-12-28T04:55:37.698Z,1011.03
2022-12-28T04:56:37.704Z,1011.01
2022-12-28T04:57:37.714Z,1011.06
2022-12-28T04:58:37.731Z,1011.04
2022-12-28T04:59:37.731Z,1011.10
2022-12-28T05:00:37.777Z,1011.10
2022-12-28T05:01:37.901Z,1011.08
2022-12-28T05:02:37.793Z,1011.12
2022-12-28T05:03:37.823Z,1011.10
2022-12-28T05:04:37.786Z,1011.05
2022-12-28T05:05:37.805Z,1011.02
2022-12-28T05:06:37.796Z,1011.04
2022-12-28T05:07:37.805Z,1010.98
2022-12-28T05:08:37.817Z,1011.00
2022-12-28T05:09:37.822Z,1011.00
2022-12-28T05:10:37.829Z,1011.00
2022-12-28T05:11:37.841Z,1010.97
2022-12-28T05:12:37.861Z,1011.00
2022-12-28T05:13:37.895Z,1011.02
2022-12-28T05:14:37.890Z,1010.97
2022-12-28T05:15:37.880Z,1010.98
2022-12-28T05:16:38.006Z,1010.99
2022-12-28T05:17:37.894Z,1010.97
2022-12-28T05:18:37.914Z,1010.98
2022-12-28T05:19:37.932Z,1010.91
2022-12-28T05:20:37.932Z,1010.94
2022-12-28T05:21:37.930Z,1010.96
2022-12-28T05:22:40.869Z,1011.02
2022-12-28T05:23:37.949Z,1010.96
2022-12-28T05:24:37.962Z,1010.93
2022-12-28T05:25:37.967Z,1010.97
2022-12-28T05:26:37.976Z,1010.87
2022-12-28T05:27:37.985Z,1010.92
2022-12-28T05:28:38.002Z,1010.91
2022-12-28T05:29:38.011Z,1010.93
2022-12-28T05:30:38.014Z,1010.90
2022-12-28T05:31:38.108Z,1010.85
2022-12-28T05:32:38.040Z,1010.85
2022-12-28T05:33:38.046Z,1010.84
2022-12-28T05:34:38.048Z,1010.85
2022-12-28T05:35:38.059Z,1010.83
2022-12-28T05:36:38.078Z,1010.81
2022-12-28T05:37:38.077Z,1010.77
2022-12-28T05:38:38.085Z,1010.76
2022-12-28T05:39:38.100Z,1010.75
2022-12-28T05:40:38.103Z,1010.74
2022-12-28T05:41:38.112Z,1010.73
2022-12-28T05:42:38.122Z,1010.71
2022-12-28T05:43:38.133Z,1010.69
2022-12-28T05:44:38.145Z,1010.65
2022-12-28T05:45:38.149Z,1010.68
2022-12-28T05:46:38.186Z,1010.67
2022-12-28T05:47:38.174Z,1010.62
2022-12-28T05:48:38.195Z,1010.57
2022-12-28T05:49:38.184Z,1010.58
2022-12-28T05:50:38.198Z,1010.59
2022-12-28T05:51:39.741Z,1010.54
2022-12-28T05:52:38.805Z,1010.52
2022-12-28T05:53:38.231Z,1010.55
2022-12-28T05:54:38.235Z,1010.52
2022-12-28T05:55:38.239Z,1010.51
2022-12-28T05:56:38.264Z,1010.49
2022-12-28T05:57:38.258Z,1010.47
2022-12-28T05:58:38.266Z,1010.43
2022-12-28T05:59:38.276Z,1010.48
2022-12-28T06:00:38.308Z,1010.47
2022-12-28T06:01:38.443Z,1010.42
2022-12-28T06:02:38.477Z,1010.43
2022-12-28T06:03:38.348Z,1010.38
2022-12-28T06:04:38.341Z,1010.29
2022-12-28T06:05:38.341Z,1010.37
2022-12-28T06:06:38.348Z,1010.34
2022-12-28T06:07:38.353Z,1010.29
2022-12-28T06:08:38.361Z,1010.28
2022-12-28T06:09:38.373Z,1010.30
2022-12-28T06:10:38.381Z,1010.27
2022-12-28T06:11:38.388Z,1010.28
2022-12-28T06:12:38.399Z,1010.24
2022-12-28T06:13:38.405Z,1010.28
2022-12-28T06:14:38.415Z,1010.25
2022-12-28T06:15:38.424Z,1010.28
2022-12-28T06:16:38.485Z,1010.19
2022-12-28T06:17:38.446Z,1010.13
2022-12-28T06:18:38.455Z,1010.11
2022-12-28T06:19:38.475Z,1010.09
2022-12-28T06:20:38.481Z,1010.13
2022-12-28T06:21:38.538Z,1010.11
2022-12-28T06:22:38.490Z,1010.12
2022-12-28T06:23:38.507Z,1010.11
2022-12-28T06:24:38.509Z,1010.10
2022-12-28T06:25:38.522Z,1010.09
2022-12-28T06:26:38.525Z,1010.06
2022-12-28T06:27:38.536Z,1010.07
2022-12-28T06:28:38.573Z,1010.04
2022-12-28T06:29:38.587Z,1010.03
2022-12-28T06:30:38.617Z,1009.95
2022-12-28T06:31:38.603Z,1010.01
2022-12-28T06:32:38.634Z,1010.01
2022-12-28T06:33:38.621Z,1009.94
2022-12-28T06:34:38.656Z,1010.03
2022-12-28T06:35:38.672Z,1010.00
2022-12-28T06:36:38.660Z,1010.01
2022-12-28T06:37:38.657Z,1009.94
2022-12-28T06:38:38.687Z,1009.91
2022-12-28T06:39:38.689Z,1009.90
2022-12-28T06:41:11.783Z,1009.84
2022-12-28T06:41:38.666Z,1009.89
2022-12-28T06:42:38.683Z,1009.87
2022-12-28T06:43:38.691Z,1009.88
2022-12-28T06:44:44.399Z,1009.85
2022-12-28T06:45:38.837Z,1009.88
2022-12-28T06:46:38.715Z,1009.83
2022-12-28T06:47:38.723Z,1009.88
2022-12-28T06:48:38.738Z,1009.86
2022-12-28T06:49:38.744Z,1009.79
2022-12-28T06:50:40.276Z,1009.81
2022-12-28T06:51:38.819Z,1009.72
2022-12-28T06:52:38.774Z,1009.77
2022-12-28T06:53:38.789Z,1009.69
2022-12-28T06:54:38.794Z,1009.66
2022-12-28T06:55:38.805Z,1009.66
2022-12-28T06:56:38.831Z,1009.66
2022-12-28T06:57:38.820Z,1009.58
2022-12-28T06:58:38.855Z,1009.60
2022-12-28T06:59:38.838Z,1009.60
2022-12-28T07:00:38.850Z,1009.56
2022-12-28T07:01:39.038Z,1009.59
2022-12-28T07:02:39.026Z,1009.55
2022-12-28T07:03:38.874Z,1009.57
2022-12-28T07:04:38.882Z,1009.52
2022-12-28T07:05:38.894Z,1009.55
2022-12-28T07:06:38.914Z,1009.56
2022-12-28T07:07:38.911Z,1009.53
2022-12-28T07:08:38.935Z,1009.54
2022-12-28T07:09:38.932Z,1009.50
2022-12-28T07:10:38.957Z,1009.51
2022-12-28T07:11:38.944Z,1009.49
2022-12-28T07:12:38.957Z,1009.45
2022-12-28T07:13:38.979Z,1009.43
2022-12-28T07:14:38.976Z,1009.41
2022-12-28T07:15:38.985Z,1009.31
2022-12-28T07:17:18.105Z,1009.36
2022-12-28T07:18:18.105Z,1009.34
2022-12-28T07:19:18.122Z,1009.34
2022-12-28T07:20:18.124Z,1009.31
2022-12-28T07:21:18.140Z,1009.35
2022-12-28T07:22:18.141Z,1009.33
2022-12-28T07:23:18.151Z,1009.34
2022-12-28T07:24:18.159Z,1009.33
2022-12-28T07:25:18.168Z,1009.34
2022-12-28T07:26:18.174Z,1009.32
2022-12-28T07:27:18.186Z,1009.28
2022-12-28T07:28:18.197Z,1009.34
2022-12-28T07:29:18.204Z,1009.31
2022-12-28T07:30:18.213Z,1009.32
2022-12-28T07:31:18.326Z,1009.27
2022-12-28T07:32:18.259Z,1009.30
2022-12-28T07:33:18.244Z,1009.26
2022-12-28T07:34:18.248Z,1009.17
2022-12-28T07:35:18.261Z,1009.14
2022-12-28T07:36:18.267Z,1009.18
2022-12-28T07:37:18.279Z,1009.12
2022-12-28T07:38:21.575Z,1009.04
2022-12-28T07:39:18.295Z,1009.06
2022-12-28T07:40:18.304Z,1009.11
2022-12-28T07:41:18.312Z,1009.00
2022-12-28T07:42:18.325Z,1009.07
2022-12-28T07:43:18.331Z,1009.03
2022-12-28T07:44:18.341Z,1008.98
2022-12-28T07:45:18.357Z,1008.99
2022-12-28T07:46:18.471Z,1008.99
2022-12-28T07:47:18.385Z,1008.99
2022-12-28T07:48:18.388Z,1008.99
2022-12-28T07:49:18.395Z,1008.94
2022-12-28T07:50:18.399Z,1008.94
2022-12-28T07:51:18.407Z,1008.97
2022-12-28T07:52:18.417Z,1008.85
2022-12-28T07:53:22.076Z,1008.89
2022-12-28T07:54:18.434Z,1008.93
2022-12-28T07:55:18.443Z,1008.95
2022-12-28T07:56:18.452Z,1008.90
2022-12-28T07:57:18.476Z,1008.90
2022-12-28T07:58:18.473Z,1008.88
2022-12-28T07:59:18.486Z,1008.94
2022-12-28T08:00:18.490Z,1008.91
2022-12-28T08:01:18.596Z,1008.96
2022-12-28T08:02:18.607Z,1008.90
2022-12-28T08:03:18.565Z,1008.94
2022-12-28T08:04:18.534Z,1008.96
2022-12-28T08:05:18.562Z,1008.90
2022-12-28T08:06:18.549Z,1008.90
2022-12-28T08:07:18.554Z,1008.84
2022-12-28T08:08:18.566Z,1008.81
2022-12-28T08:09:18.577Z,1008.85
2022-12-28T08:10:18.585Z,1008.91
2022-12-28T08:11:18.593Z,1008.91
2022-12-28T08:12:18.602Z,1008.88
2022-12-28T08:13:18.612Z,1008.86
2022-12-28T08:14:18.634Z,1008.80
2022-12-28T08:15:18.638Z,1008.87
2022-12-28T08:16:18.706Z,1008.87
2022-12-28T08:17:21.146Z,1008.80
2022-12-28T08:18:18.662Z,1008.76
2022-12-28T08:19:18.672Z,1008.80
2022-12-28T08:20:18.680Z,1008.77
2022-12-28T08:21:18.688Z,1008.75
2022-12-28T08:22:18.701Z,1008.72
2022-12-28T08:23:18.716Z,1008.73
2022-12-28T08:24:18.719Z,1008.72
2022-12-28T08:25:18.747Z,1008.70
2022-12-28T08:26:18.772Z,1008.65
2022-12-28T08:27:18.747Z,1008.66
2022-12-28T08:28:18.760Z,1008.61
2022-12-28T08:29:18.766Z,1008.56
2022-12-28T08:30:18.779Z,1008.58
2022-12-28T08:31:18.836Z,1008.53
2022-12-28T08:32:18.800Z,1008.53
2022-12-28T08:33:18.806Z,1008.56
2022-12-28T08:34:18.821Z,1008.62
2022-12-28T08:35:18.827Z,1008.54
2022-12-28T08:36:18.834Z,1008.50
2022-12-28T08:37:18.849Z,1008.45
2022-12-28T08:38:18.856Z,1008.46
2022-12-28T08:39:18.866Z,1008.44
2022-12-28T08:40:18.877Z,1008.39
2022-12-28T08:41:18.886Z,1008.41
2022-12-28T08:42:18.896Z,1008.40
2022-12-28T08:43:18.909Z,1008.35
2022-12-28T08:44:18.917Z,1008.37
2022-12-28T08:45:18.927Z,1008.39
2022-12-28T08:46:19.108Z,1008.38
2022-12-28T08:47:18.987Z,1008.39
2022-12-28T08:48:18.952Z,1008.39
2022-12-28T08:49:18.972Z,1008.38
2022-12-28T08:50:20.226Z,1008.42
2022-12-28T08:51:18.989Z,1008.42
2022-12-28T08:52:19.000Z,1008.37
2022-12-28T08:53:19.021Z,1008.45
2022-12-28T08:54:19.016Z,1008.43
2022-12-28T08:55:19.034Z,1008.40
2022-12-28T08:56:19.060Z,1008.37
2022-12-28T08:57:19.047Z,1008.40
2022-12-28T08:58:19.057Z,1008.35
2022-12-28T08:59:19.068Z,1008.42
2022-12-28T09:00:19.084Z,1008.43
2022-12-28T09:01:19.206Z,1008.45
2022-12-28T09:02:19.173Z,1008.37
2022-12-28T09:03:19.199Z,1008.40
2022-12-28T09:04:19.119Z,1008.39
2022-12-28T09:05:19.128Z,1008.29
2022-12-28T09:06:19.146Z,1008.20
2022-12-28T09:07:19.148Z,1008.23
2022-12-28T09:08:19.161Z,1008.31
2022-12-28T09:09:19.199Z,1008.37
2022-12-28T09:10:19.238Z,1008.43
2022-12-28T09:11:19.193Z,1008.32
2022-12-28T09:12:19.206Z,1008.33
2022-12-28T09:13:19.219Z,1008.30
2022-12-28T09:14:23.605Z,1008.29
2022-12-28T09:15:19.240Z,1008.32
2022-12-28T09:16:19.287Z,1008.35
2022-12-28T09:17:19.265Z,1008.32
2022-12-28T09:18:19.267Z,1008.37
2022-12-28T09:19:19.281Z,1008.22
2022-12-28T09:20:19.299Z,1008.28
2022-12-28T09:21:19.336Z,1008.23
2022-12-28T09:22:19.310Z,1008.20
2022-12-28T09:23:19.322Z,1008.15
2022-12-28T09:24:19.331Z,1008.21
2022-12-28T09:25:19.345Z,1008.21
2022-12-28T09:26:19.354Z,1008.18
2022-12-28T09:27:19.367Z,1008.11
2022-12-28T09:28:19.376Z,1008.17
2022-12-28T09:29:19.386Z,1008.16
2022-12-28T09:30:19.399Z,1008.14
2022-12-28T09:31:19.446Z,1008.16
2022-12-28T09:32:19.432Z,1008.11
2022-12-28T09:33:19.430Z,1008.05
2022-12-28T09:34:36.845Z,1008.00
2022-12-28T09:35:19.452Z,1008.00
2022-12-28T09:36:19.462Z,1007.94
2022-12-28T09:37:19.480Z,1007.91
2022-12-28T09:38:19.494Z,1007.95
2022-12-28T09:39:19.664Z,1007.97
2022-12-28T09:40:19.504Z,1007.93
2022-12-28T09:41:19.519Z,1007.99
2022-12-28T09:42:19.531Z,1007.92
2022-12-28T09:43:19.538Z,1007.97
2022-12-28T09:44:19.597Z,1007.92
2022-12-28T09:45:19.561Z,1007.80
2022-12-28T09:46:19.608Z,1007.91
2022-12-28T09:47:19.583Z,1007.85
2022-12-28T09:48:19.592Z,1007.84
2022-12-28T09:49:19.607Z,1007.85
2022-12-28T09:50:19.631Z,1007.83
2022-12-28T09:51:19.634Z,1007.75
2022-12-28T09:52:19.645Z,1007.80
2022-12-28T09:53:19.673Z,1007.81
2022-12-28T09:54:19.674Z,1007.75
2022-12-28T09:55:19.682Z,1007.80
2022-12-28T09:56:19.692Z,1007.80
2022-12-28T09:57:19.700Z,1007.81
2022-12-28T09:58:19.715Z,1007.75
2022-12-28T09:59:19.721Z,1007.78
2022-12-28T10:00:19.850Z,1007.82
2022-12-28T10:01:19.880Z,1007.75
2022-12-28T10:02:19.776Z,1007.67
2022-12-28T10:03:19.852Z,1007.68
2022-12-28T10:04:19.771Z,1007.68
2022-12-28T10:05:19.785Z,1007.67
2022-12-28T10:06:19.798Z,1007.61
2022-12-28T10:07:19.806Z,1007.64
2022-12-28T10:08:19.818Z,1007.64
2022-12-28T10:09:19.827Z,1007.60
2022-12-28T10:10:19.911Z,1007.67
2022-12-28T10:11:19.865Z,1007.62
2022-12-28T10:12:19.866Z,1007.65
2022-12-28T10:14:19.895Z,1007.50
2022-12-28T10:15:19.897Z,1007.57
2022-12-28T10:16:19.971Z,1007.53
2022-12-28T10:17:19.918Z,1007.47
2022-12-28T10:18:19.928Z,1007.56
2022-12-28T10:19:19.949Z,1007.54
2022-12-28T10:20:19.950Z,1007.51
2022-12-28T10:21:20.009Z,1007.53
2022-12-28T10:22:19.975Z,1007.53
2022-12-28T10:23:19.988Z,1007.49
2022-12-28T10:24:35.099Z,1007.50
2022-12-28T10:25:20.007Z,1007.56
2022-12-28T10:26:20.023Z,1007.46
2022-12-28T10:27:20.033Z,1007.46
2022-12-28T10:28:20.045Z,1007.46
2022-12-28T10:29:20.055Z,1007.51
2022-12-28T10:30:20.070Z,1007.55
2022-12-28T10:31:20.156Z,1007.53
2022-12-28T10:32:20.096Z,1007.54
2022-12-28T10:33:20.114Z,1007.52
2022-12-28T10:34:20.120Z,1007.49
2022-12-28T10:35:20.125Z,1007.44
2022-12-28T10:36:20.139Z,1007.44
2022-12-28T10:37:20.147Z,1007.37
2022-12-28T10:38:20.157Z,1007.42
2022-12-28T10:39:20.171Z,1007.29
2022-12-28T10:40:20.190Z,1007.29
2022-12-28T10:41:20.204Z,1007.31
2022-12-28T10:42:20.213Z,1007.31
2022-12-28T10:43:20.236Z,1007.28
2022-12-28T10:45:20.237Z,1007.21
2022-12-28T10:46:20.304Z,1007.23
2022-12-28T10:47:20.272Z,1007.22
2022-12-28T10:48:20.272Z,1007.19
2022-12-28T10:49:20.287Z,1007.15
2022-12-28T10:50:37.054Z,1007.18
2022-12-28T10:51:20.308Z,1007.14
2022-12-28T10:52:20.318Z,1007.18
2022-12-28T10:53:20.330Z,1007.14
2022-12-28T10:54:28.222Z,1007.16
2022-12-28T10:55:20.361Z,1007.06
2022-12-28T10:56:20.364Z,1007.17
2022-12-28T10:57:20.376Z,1007.09
2022-12-28T10:58:35.407Z,1007.12
2022-12-28T10:59:20.403Z,1007.09
2022-12-28T11:00:20.416Z,1007.08
2022-12-28T11:01:20.569Z,1007.13
2022-12-28T11:02:20.573Z,1007.09
2022-12-28T11:03:20.540Z,1007.12
2022-12-28T11:04:20.464Z,1007.05
2022-12-28T11:05:20.468Z,1007.04
2022-12-28T11:06:26.647Z,1007.00
2022-12-28T11:07:20.492Z,1007.03
2022-12-28T11:08:20.505Z,1007.06
2022-12-28T11:09:20.527Z,1007.03
2022-12-28T11:10:20.535Z,1007.08
2022-12-28T11:11:20.542Z,1007.03
2022-12-28T11:12:20.553Z,1007.02
2022-12-28T11:13:22.289Z,1007.04
2022-12-28T11:14:20.576Z,1007.03
2022-12-28T11:15:20.586Z,1007.01
2022-12-28T11:16:20.627Z,1007.02
2022-12-28T11:17:20.616Z,1007.00
2022-12-28T11:18:20.623Z,1006.97
2022-12-28T11:19:20.642Z,1006.94
2022-12-28T11:20:20.649Z,1007.01
2022-12-28T11:21:20.662Z,1006.91
2022-12-28T11:22:20.677Z,1006.89
2022-12-28T11:23:20.685Z,1006.87
2022-12-28T11:24:20.696Z,1006.88
2022-12-28T11:25:20.709Z,1006.86
2022-12-28T11:26:20.723Z,1006.88
2022-12-28T11:27:20.735Z,1006.80
2022-12-28T11:28:21.774Z,1006.80
2022-12-28T11:29:20.765Z,1006.76
2022-12-28T11:30:20.803Z,1006.78
2022-12-28T11:31:20.819Z,1006.80
2022-12-28T11:32:20.792Z,1006.70
2022-12-28T11:33:20.809Z,1006.75
2022-12-28T11:34:20.821Z,1006.72
2022-12-28T11:35:20.832Z,1006.75
2022-12-28T11:36:20.868Z,1006.71
2022-12-28T11:37:20.859Z,1006.70
2022-12-28T11:38:20.869Z,1006.71
2022-12-28T11:39:20.880Z,1006.68
2022-12-28T11:40:20.891Z,1006.71
2022-12-28T11:41:20.902Z,1006.73
2022-12-28T11:43:20.928Z,1006.66
2022-12-28T11:44:20.942Z,1006.63
2022-12-28T11:45:20.968Z,1006.66
2022-12-28T11:46:20.963Z,1006.70
2022-12-28T11:47:26.431Z,1006.67
2022-12-28T11:48:20.990Z,1006.71
2022-12-28T11:49:21.002Z,1006.65
2022-12-28T11:50:21.015Z,1006.65
2022-12-28T11:51:21.023Z,1006.61
2022-12-28T11:52:21.037Z,1006.59
2022-12-28T11:53:21.051Z,1006.59
2022-12-28T11:54:21.064Z,1006.54
2022-12-28T11:55:21.074Z,1006.62
2022-12-28T11:56:21.090Z,1006.63
2022-12-28T11:57:21.102Z,1006.61
2022-12-28T11:58:21.115Z,1006.58
2022-12-28T11:59:21.121Z,1006.57
2022-12-28T12:00:23.086Z,1006.57
2022-12-28T12:01:21.153Z,1006.56
2022-12-28T12:02:21.217Z,1006.57
2022-12-28T12:03:21.193Z,1006.45
2022-12-28T12:04:21.184Z,1006.50
2022-12-28T12:05:21.198Z,1006.50
2022-12-28T12:06:25.450Z,1006.51
2022-12-28T12:07:23.651Z,1006.51
2022-12-28T12:08:21.232Z,1006.47
2022-12-28T12:09:21.261Z,1006.48